HKEL

Eldoret International Airport

Eldoret, Kenya
TAF HKEL 231700Z 2318/2418 00000KT 9999 SCT015 FEW018CB BKN080 TEMPO 2400/2406 15005KT BECMG 2406/2409 09010KT SCT022 BKN090 TEMPO 2412/2418 16010KT -TSRA FEW018CB BKN019 BKN080
Issued Valid From Valid To
Apr-23 @ 17:00 UTC
(6 hours ago)
Apr-23 @ 18:00 UTC
(5 hours ago)
Apr-24 @ 18:00 UTC
(in 19 hours)
Apr-23 @ 18:00 to Apr-24 @ 06:00
TAF HKEL 231700Z 2318/2418 00000KT 9999 SCT015 FEW018CB BKN080
Visibility Clouds
10,000+ meters
  • Scattered at 1,500' AGL
  • Few at 1,800' AGL
  • Broken at 8,000' AGL
Temporary Apr-24 @ 00:00 to Apr-24 @ 06:00
TEMPO 2400/2406 15005KT
Wind
150° at 5 knots
Becoming Apr-24 @ 06:00 to Apr-24 @ 18:00
BECMG 2406/2409 09010KT SCT022 BKN090
Wind Visibility Clouds
90° at 10 knots 10,000+ meters
  • Scattered at 2,200' AGL
  • Broken at 9,000' AGL
Temporary Apr-24 @ 12:00 to Apr-24 @ 18:00
TEMPO 2412/2418 16010KT -TSRA FEW018CB BKN019 BKN080
Wind Clouds Conditions
160° at 10 knots
  • Few at 1,800' AGL
  • Broken at 1,900' AGL
  • Broken at 8,000' AGL
  • Light Thunderstorm
  • Light Rain
TAF HKEL 231700Z 2318/2418 00000KT 9999 SCT015 FEW018CB BKN080 TEMPO 2400/2406 15005KT BECMG 2406/2409 09010KT SCT022 BKN090 TEMPO 2412/2418 16010KT -TSRA FEW018CB BKN019 BKN080
Issued Apr-23 @ 17:00 UTC
(6 hours ago)
Valid From Apr-23 @ 18:00 UTC
(5 hours ago)
Valid To Apr-24 @ 18:00 UTC
(in 19 hours)
Apr-23 @ 18:00 - Apr-24 @ 06:00
Clouds
  • Scattered at 1,500' AGL
  • Few at 1,800' AGL
  • Broken at 8,000' AGL
Temporary Apr-24 @ 00:00 - Apr-24 @ 06:00
Wind
150° at 5 knots
Becoming Apr-24 @ 06:00 - Apr-24 @ 18:00
Wind Visibility
90° at 10 knots 10,000+ meters
Clouds
  • Scattered at 2,200' AGL
  • Broken at 9,000' AGL
Temporary Apr-24 @ 12:00 - Apr-24 @ 18:00
Wind
160° at 10 knots
Clouds
  • Few at 1,800' AGL
  • Broken at 1,900' AGL
  • Broken at 8,000' AGL
Conditions
  • Light Thunderstorm
  • Light Rain